sensor_id;sensor_type;location;lat;lon;timestamp;P1;durP1;ratioP1;P2;durP2;ratioP2
809;SDS011;387;48.772;9.186;2023-02-28T00:00:23;7.30;;;4.88;;
809;SDS011;387;48.772;9.186;2023-02-28T00:02:49;6.07;;;3.47;;
809;SDS011;387;48.772;9.186;2023-02-28T00:05:16;11.80;;;5.13;;
809;SDS011;387;48.772;9.186;2023-02-28T00:07:44;7.20;;;4.45;;
809;SDS011;387;48.772;9.186;2023-02-28T00:10:11;5.97;;;4.20;;
809;SDS011;387;48.772;9.186;2023-02-28T00:12:38;10.05;;;3.75;;
809;SDS011;387;48.772;9.186;2023-02-28T00:15:08;6.17;;;3.33;;
809;SDS011;387;48.772;9.186;2023-02-28T00:17:35;6.15;;;3.95;;
809;SDS011;387;48.772;9.186;2023-02-28T00:20:01;6.78;;;4.32;;
809;SDS011;387;48.772;9.186;2023-02-28T00:22:29;5.88;;;3.95;;
809;SDS011;387;48.772;9.186;2023-02-28T00:24:55;7.85;;;4.20;;
809;SDS011;387;48.772;9.186;2023-02-28T00:27:21;10.03;;;4.07;;
809;SDS011;387;48.772;9.186;2023-02-28T00:29:47;7.20;;;3.70;;
809;SDS011;387;48.772;9.186;2023-02-28T00:32:12;9.20;;;4.23;;
809;SDS011;387;48.772;9.186;2023-02-28T00:34:38;9.10;;;4.00;;
809;SDS011;387;48.772;9.186;2023-02-28T00:37:08;7.03;;;4.30;;
809;SDS011;387;48.772;9.186;2023-02-28T00:39:37;4.60;;;3.42;;
809;SDS011;387;48.772;9.186;2023-02-28T00:42:04;6.15;;;3.58;;
809;SDS011;387;48.772;9.186;2023-02-28T00:44:31;6.05;;;3.60;;
809;SDS011;387;48.772;9.186;2023-02-28T00:46:57;5.85;;;3.83;;
809;SDS011;387;48.772;9.186;2023-02-28T00:49:23;5.78;;;3.92;;
809;SDS011;387;48.772;9.186;2023-02-28T00:51:50;8.50;;;4.00;;
809;SDS011;387;48.772;9.186;2023-02-28T00:54:16;7.00;;;4.57;;
809;SDS011;387;48.772;9.186;2023-02-28T00:56:41;5.83;;;3.47;;
809;SDS011;387;48.772;9.186;2023-02-28T00:59:07;8.70;;;4.03;;
809;SDS011;387;48.772;9.186;2023-02-28T01:01:33;5.80;;;3.27;;
809;SDS011;387;48.772;9.186;2023-02-28T01:03:59;5.90;;;4.20;;
809;SDS011;387;48.772;9.186;2023-02-28T01:06:25;7.33;;;4.23;;
809;SDS011;387;48.772;9.186;2023-02-28T01:08:51;6.47;;;3.33;;
809;SDS011;387;48.772;9.186;2023-02-28T01:11:16;5.00;;;3.83;;
809;SDS011;387;48.772;9.186;2023-02-28T01:13:44;5.20;;;3.50;;
809;SDS011;387;48.772;9.186;2023-02-28T01:16:10;5.45;;;3.65;;
809;SDS011;387;48.772;9.186;2023-02-28T01:18:36;5.93;;;3.53;;
809;SDS011;387;48.772;9.186;2023-02-28T01:21:04;6.82;;;4.28;;
809;SDS011;387;48.772;9.186;2023-02-28T01:23:35;6.15;;;3.83;;
809;SDS011;387;48.772;9.186;2023-02-28T01:26:07;6.00;;;3.80;;
809;SDS011;387;48.772;9.186;2023-02-28T01:28:34;9.85;;;4.22;;
809;SDS011;387;48.772;9.186;2023-02-28T01:31:00;7.30;;;4.70;;
809;SDS011;387;48.772;9.186;2023-02-28T01:33:26;5.95;;;4.13;;
809;SDS011;387;48.772;9.186;2023-02-28T01:36:01;4.90;;;3.50;;
809;SDS011;387;48.772;9.186;2023-02-28T01:38:29;4.25;;;3.50;;
809;SDS011;387;48.772;9.186;2023-02-28T01:40:56;8.90;;;4.50;;
809;SDS011;387;48.772;9.186;2023-02-28T01:43:26;6.82;;;3.92;;
809;SDS011;387;48.772;9.186;2023-02-28T01:45:53;7.40;;;4.05;;
809;SDS011;387;48.772;9.186;2023-02-28T01:48:21;7.50;;;4.10;;
809;SDS011;387;48.772;9.186;2023-02-28T01:50:51;6.03;;;4.43;;
809;SDS011;387;48.772;9.186;2023-02-28T01:53:19;8.02;;;4.05;;
809;SDS011;387;48.772;9.186;2023-02-28T01:55:51;10.30;;;5.05;;
809;SDS011;387;48.772;9.186;2023-02-28T01:58:18;6.40;;;4.30;;
809;SDS011;387;48.772;9.186;2023-02-28T02:00:45;8.27;;;4.38;;
809;SDS011;387;48.772;9.186;2023-02-28T02:03:12;7.43;;;4.72;;
809;SDS011;387;48.772;9.186;2023-02-28T02:05:40;8.30;;;4.88;;
809;SDS011;387;48.772;9.186;2023-02-28T02:08:10;7.90;;;4.50;;
809;SDS011;387;48.772;9.186;2023-02-28T02:10:40;8.55;;;4.88;;
809;SDS011;387;48.772;9.186;2023-02-28T02:18:36;14.38;;;4.75;;
809;SDS011;387;48.772;9.186;2023-02-28T02:35:29;10.07;;;5.15;;
809;SDS011;387;48.772;9.186;2023-02-28T02:40:05;10.32;;;6.10;;
809;SDS011;387;48.772;9.186;2023-02-28T02:42:51;11.45;;;5.30;;
809;SDS011;387;48.772;9.186;2023-02-28T02:48:02;7.13;;;4.60;;
809;SDS011;387;48.772;9.186;2023-02-28T02:50:33;9.80;;;5.13;;
809;SDS011;387;48.772;9.186;2023-02-28T02:53:12;6.30;;;4.75;;
809;SDS011;387;48.772;9.186;2023-02-28T02:55:43;8.07;;;5.43;;
809;SDS011;387;48.772;9.186;2023-02-28T02:58:13;9.45;;;4.90;;
809;SDS011;387;48.772;9.186;2023-02-28T03:00:42;8.35;;;5.50;;
809;SDS011;387;48.772;9.186;2023-02-28T03:03:13;11.57;;;6.20;;
809;SDS011;387;48.772;9.186;2023-02-28T03:05:44;9.05;;;5.50;;
809;SDS011;387;48.772;9.186;2023-02-28T03:08:12;11.32;;;6.38;;
809;SDS011;387;48.772;9.186;2023-02-28T03:10:39;10.10;;;5.87;;
809;SDS011;387;48.772;9.186;2023-02-28T03:16:06;10.00;;;6.10;;
809;SDS011;387;48.772;9.186;2023-02-28T03:18:32;13.68;;;5.32;;
809;SDS011;387;48.772;9.186;2023-02-28T03:21:06;9.52;;;5.50;;
809;SDS011;387;48.772;9.186;2023-02-28T03:23:57;12.13;;;5.88;;
809;SDS011;387;48.772;9.186;2023-02-28T03:26:27;8.43;;;5.85;;
809;SDS011;387;48.772;9.186;2023-02-28T03:31:33;8.70;;;5.00;;
809;SDS011;387;48.772;9.186;2023-02-28T03:36:34;10.40;;;5.85;;
809;SDS011;387;48.772;9.186;2023-02-28T03:39:08;8.00;;;5.03;;
809;SDS011;387;48.772;9.186;2023-02-28T03:41:59;9.30;;;5.80;;
809;SDS011;387;48.772;9.186;2023-02-28T03:44:30;8.93;;;6.10;;
809;SDS011;387;48.772;9.186;2023-02-28T03:47:11;12.75;;;6.15;;
809;SDS011;387;48.772;9.186;2023-02-28T03:49:44;10.57;;;5.28;;
809;SDS011;387;48.772;9.186;2023-02-28T03:52:14;8.35;;;5.30;;
809;SDS011;387;48.772;9.186;2023-02-28T03:54:43;9.95;;;5.28;;
809;SDS011;387;48.772;9.186;2023-02-28T03:57:18;10.23;;;5.68;;
809;SDS011;387;48.772;9.186;2023-02-28T03:59:52;9.30;;;5.63;;
809;SDS011;387;48.772;9.186;2023-02-28T04:02:21;9.95;;;5.90;;
809;SDS011;387;48.772;9.186;2023-02-28T04:04:47;9.13;;;5.33;;
809;SDS011;387;48.772;9.186;2023-02-28T04:07:13;9.30;;;5.83;;
809;SDS011;387;48.772;9.186;2023-02-28T04:09:39;10.52;;;5.60;;
809;SDS011;387;48.772;9.186;2023-02-28T04:12:05;10.33;;;5.90;;
809;SDS011;387;48.772;9.186;2023-02-28T04:14:31;11.80;;;6.13;;
809;SDS011;387;48.772;9.186;2023-02-28T04:16:56;9.60;;;5.73;;
809;SDS011;387;48.772;9.186;2023-02-28T04:19:22;8.93;;;6.00;;
809;SDS011;387;48.772;9.186;2023-02-28T04:21:51;11.07;;;6.27;;
809;SDS011;387;48.772;9.186;2023-02-28T04:24:19;11.93;;;6.13;;
809;SDS011;387;48.772;9.186;2023-02-28T04:26:47;14.27;;;6.10;;
809;SDS011;387;48.772;9.186;2023-02-28T04:29:22;11.85;;;6.38;;
809;SDS011;387;48.772;9.186;2023-02-28T04:31:51;9.48;;;5.93;;
809;SDS011;387;48.772;9.186;2023-02-28T04:34:24;11.32;;;6.35;;
809;SDS011;387;48.772;9.186;2023-02-28T04:36:54;9.63;;;5.90;;
809;SDS011;387;48.772;9.186;2023-02-28T04:39:20;11.43;;;6.57;;
809;SDS011;387;48.772;9.186;2023-02-28T04:41:46;16.17;;;6.22;;
809;SDS011;387;48.772;9.186;2023-02-28T04:44:13;10.53;;;5.93;;
809;SDS011;387;48.772;9.186;2023-02-28T04:46:39;9.52;;;6.13;;
809;SDS011;387;48.772;9.186;2023-02-28T04:49:04;14.57;;;6.30;;
809;SDS011;387;48.772;9.186;2023-02-28T04:51:30;9.30;;;6.37;;
809;SDS011;387;48.772;9.186;2023-02-28T04:53:56;11.33;;;6.43;;
809;SDS011;387;48.772;9.186;2023-02-28T04:56:21;10.40;;;6.37;;
809;SDS011;387;48.772;9.186;2023-02-28T04:58:48;10.27;;;5.93;;
809;SDS011;387;48.772;9.186;2023-02-28T05:01:35;14.50;;;6.85;;
809;SDS011;387;48.772;9.186;2023-02-28T05:04:01;11.93;;;5.68;;
809;SDS011;387;48.772;9.186;2023-02-28T05:06:28;10.50;;;6.00;;
809;SDS011;387;48.772;9.186;2023-02-28T05:08:55;13.48;;;6.68;;
809;SDS011;387;48.772;9.186;2023-02-28T05:11:31;10.90;;;7.10;;
809;SDS011;387;48.772;9.186;2023-02-28T05:14:04;12.48;;;5.93;;
809;SDS011;387;48.772;9.186;2023-02-28T05:16:34;14.13;;;6.65;;
809;SDS011;387;48.772;9.186;2023-02-28T05:18:59;16.73;;;5.83;;
809;SDS011;387;48.772;9.186;2023-02-28T05:21:27;17.50;;;8.00;;
809;SDS011;387;48.772;9.186;2023-02-28T05:24:01;10.48;;;6.50;;
809;SDS011;387;48.772;9.186;2023-02-28T05:26:28;11.77;;;7.13;;
809;SDS011;387;48.772;9.186;2023-02-28T05:28:54;9.75;;;6.78;;
809;SDS011;387;48.772;9.186;2023-02-28T05:31:21;10.68;;;6.25;;
809;SDS011;387;48.772;9.186;2023-02-28T05:33:47;18.42;;;6.78;;
809;SDS011;387;48.772;9.186;2023-02-28T05:36:12;10.60;;;5.40;;
809;SDS011;387;48.772;9.186;2023-02-28T05:38:38;12.83;;;6.10;;
809;SDS011;387;48.772;9.186;2023-02-28T05:41:05;11.37;;;7.07;;
809;SDS011;387;48.772;9.186;2023-02-28T05:43:35;11.90;;;6.78;;
809;SDS011;387;48.772;9.186;2023-02-28T05:46:02;13.27;;;6.55;;
809;SDS011;387;48.772;9.186;2023-02-28T05:48:32;12.10;;;6.55;;
809;SDS011;387;48.772;9.186;2023-02-28T05:50:59;13.05;;;7.10;;
809;SDS011;387;48.772;9.186;2023-02-28T05:53:25;15.37;;;7.50;;
809;SDS011;387;48.772;9.186;2023-02-28T05:55:51;13.70;;;7.73;;
809;SDS011;387;48.772;9.186;2023-02-28T05:58:17;13.73;;;7.20;;
809;SDS011;387;48.772;9.186;2023-02-28T06:00:43;19.38;;;8.32;;
809;SDS011;387;48.772;9.186;2023-02-28T06:03:09;17.40;;;7.30;;
809;SDS011;387;48.772;9.186;2023-02-28T06:05:34;10.83;;;7.20;;
809;SDS011;387;48.772;9.186;2023-02-28T06:08:00;12.80;;;7.20;;
809;SDS011;387;48.772;9.186;2023-02-28T06:10:25;21.00;;;8.07;;
809;SDS011;387;48.772;9.186;2023-02-28T06:12:51;13.77;;;6.80;;
809;SDS011;387;48.772;9.186;2023-02-28T06:15:17;13.00;;;7.33;;
809;SDS011;387;48.772;9.186;2023-02-28T06:17:43;13.50;;;7.50;;
809;SDS011;387;48.772;9.186;2023-02-28T06:20:09;13.38;;;6.82;;
809;SDS011;387;48.772;9.186;2023-02-28T06:22:37;18.65;;;7.45;;
809;SDS011;387;48.772;9.186;2023-02-28T06:25:04;15.52;;;7.93;;
809;SDS011;387;48.772;9.186;2023-02-28T06:27:31;15.30;;;7.30;;
809;SDS011;387;48.772;9.186;2023-02-28T06:29:58;14.38;;;7.22;;
809;SDS011;387;48.772;9.186;2023-02-28T06:32:23;13.37;;;7.80;;
809;SDS011;387;48.772;9.186;2023-02-28T06:34:49;19.73;;;7.37;;
809;SDS011;387;48.772;9.186;2023-02-28T06:37:15;12.48;;;6.20;;
809;SDS011;387;48.772;9.186;2023-02-28T06:39:41;14.43;;;7.30;;
809;SDS011;387;48.772;9.186;2023-02-28T06:42:07;14.23;;;7.30;;
809;SDS011;387;48.772;9.186;2023-02-28T06:44:33;19.60;;;8.07;;
809;SDS011;387;48.772;9.186;2023-02-28T06:47:00;17.38;;;7.65;;
809;SDS011;387;48.772;9.186;2023-02-28T06:49:28;10.98;;;5.82;;
809;SDS011;387;48.772;9.186;2023-02-28T06:51:58;14.40;;;7.18;;
809;SDS011;387;48.772;9.186;2023-02-28T06:54:23;12.93;;;6.83;;
809;SDS011;387;48.772;9.186;2023-02-28T06:56:49;17.17;;;7.70;;
809;SDS011;387;48.772;9.186;2023-02-28T06:59:15;17.13;;;7.87;;
809;SDS011;387;48.772;9.186;2023-02-28T07:01:41;14.35;;;7.03;;
809;SDS011;387;48.772;9.186;2023-02-28T07:04:07;13.43;;;7.00;;
809;SDS011;387;48.772;9.186;2023-02-28T07:06:33;17.63;;;8.23;;
809;SDS011;387;48.772;9.186;2023-02-28T07:08:59;20.13;;;8.10;;
809;SDS011;387;48.772;9.186;2023-02-28T07:11:26;28.50;;;8.30;;
809;SDS011;387;48.772;9.186;2023-02-28T07:13:55;16.83;;;8.18;;
809;SDS011;387;48.772;9.186;2023-02-28T07:16:22;14.90;;;7.93;;
809;SDS011;387;48.772;9.186;2023-02-28T07:18:49;18.27;;;8.75;;
809;SDS011;387;48.772;9.186;2023-02-28T07:21:16;18.52;;;9.30;;
809;SDS011;387;48.772;9.186;2023-02-28T07:23:42;19.60;;;8.97;;
809;SDS011;387;48.772;9.186;2023-02-28T07:26:13;17.07;;;8.53;;
809;SDS011;387;48.772;9.186;2023-02-28T07:28:42;15.32;;;8.40;;
809;SDS011;387;48.772;9.186;2023-02-28T07:31:08;17.90;;;8.57;;
809;SDS011;387;48.772;9.186;2023-02-28T07:33:35;17.67;;;8.35;;
809;SDS011;387;48.772;9.186;2023-02-28T07:36:02;17.17;;;8.35;;
809;SDS011;387;48.772;9.186;2023-02-28T07:38:29;16.83;;;8.80;;
809;SDS011;387;48.772;9.186;2023-02-28T07:40:54;15.53;;;8.53;;
809;SDS011;387;48.772;9.186;2023-02-28T07:43:20;18.90;;;8.73;;
809;SDS011;387;48.772;9.186;2023-02-28T07:45:45;14.83;;;8.60;;
809;SDS011;387;48.772;9.186;2023-02-28T07:48:11;15.07;;;8.20;;
809;SDS011;387;48.772;9.186;2023-02-28T07:50:37;17.90;;;9.13;;
809;SDS011;387;48.772;9.186;2023-02-28T07:53:02;24.77;;;9.40;;
809;SDS011;387;48.772;9.186;2023-02-28T07:55:29;20.83;;;8.85;;
809;SDS011;387;48.772;9.186;2023-02-28T07:57:56;21.23;;;9.17;;
809;SDS011;387;48.772;9.186;2023-02-28T08:00:22;14.80;;;8.65;;
809;SDS011;387;48.772;9.186;2023-02-28T08:02:48;17.70;;;9.70;;
809;SDS011;387;48.772;9.186;2023-02-28T08:05:14;16.30;;;8.83;;
809;SDS011;387;48.772;9.186;2023-02-28T08:07:40;16.67;;;9.50;;
809;SDS011;387;48.772;9.186;2023-02-28T08:10:06;19.73;;;8.90;;
809;SDS011;387;48.772;9.186;2023-02-28T08:12:33;19.67;;;9.50;;
809;SDS011;387;48.772;9.186;2023-02-28T08:14:59;23.03;;;9.30;;
809;SDS011;387;48.772;9.186;2023-02-28T08:17:24;25.50;;;8.80;;
809;SDS011;387;48.772;9.186;2023-02-28T08:19:50;17.20;;;8.43;;
809;SDS011;387;48.772;9.186;2023-02-28T08:22:15;14.83;;;8.93;;
809;SDS011;387;48.772;9.186;2023-02-28T08:24:41;16.20;;;8.50;;
809;SDS011;387;48.772;9.186;2023-02-28T08:27:08;19.42;;;9.98;;
809;SDS011;387;48.772;9.186;2023-02-28T08:29:36;15.10;;;8.35;;
809;SDS011;387;48.772;9.186;2023-02-28T08:32:02;18.88;;;9.25;;
809;SDS011;387;48.772;9.186;2023-02-28T08:34:28;15.33;;;8.20;;
809;SDS011;387;48.772;9.186;2023-02-28T08:36:54;18.75;;;9.45;;
809;SDS011;387;48.772;9.186;2023-02-28T08:39:20;18.13;;;9.73;;
809;SDS011;387;48.772;9.186;2023-02-28T08:41:46;18.80;;;8.93;;
809;SDS011;387;48.772;9.186;2023-02-28T08:44:11;16.40;;;9.63;;
809;SDS011;387;48.772;9.186;2023-02-28T08:46:37;15.47;;;9.70;;
809;SDS011;387;48.772;9.186;2023-02-28T08:49:03;18.00;;;8.68;;
809;SDS011;387;48.772;9.186;2023-02-28T08:51:29;18.47;;;9.60;;
809;SDS011;387;48.772;9.186;2023-02-28T08:53:56;19.73;;;9.47;;
809;SDS011;387;48.772;9.186;2023-02-28T08:56:24;16.80;;;9.70;;
809;SDS011;387;48.772;9.186;2023-02-28T08:58:51;17.35;;;9.50;;
809;SDS011;387;48.772;9.186;2023-02-28T09:01:27;17.77;;;9.35;;
809;SDS011;387;48.772;9.186;2023-02-28T09:03:53;19.13;;;10.05;;
809;SDS011;387;48.772;9.186;2023-02-28T09:06:20;16.00;;;8.52;;
809;SDS011;387;48.772;9.186;2023-02-28T09:08:48;16.40;;;9.52;;
809;SDS011;387;48.772;9.186;2023-02-28T09:11:14;17.70;;;9.40;;
809;SDS011;387;48.772;9.186;2023-02-28T09:13:40;22.03;;;10.73;;
809;SDS011;387;48.772;9.186;2023-02-28T09:16:06;24.13;;;10.53;;
809;SDS011;387;48.772;9.186;2023-02-28T09:18:34;19.65;;;9.30;;
809;SDS011;387;48.772;9.186;2023-02-28T09:21:07;18.92;;;9.60;;
809;SDS011;387;48.772;9.186;2023-02-28T09:23:34;25.13;;;9.98;;
809;SDS011;387;48.772;9.186;2023-02-28T09:26:02;18.70;;;9.98;;
809;SDS011;387;48.772;9.186;2023-02-28T09:28:28;17.83;;;10.07;;
809;SDS011;387;48.772;9.186;2023-02-28T09:30:54;16.77;;;9.40;;
809;SDS011;387;48.772;9.186;2023-02-28T09:33:22;17.08;;;9.68;;
809;SDS011;387;48.772;9.186;2023-02-28T09:35:48;17.53;;;9.73;;
809;SDS011;387;48.772;9.186;2023-02-28T09:38:14;16.75;;;9.70;;
809;SDS011;387;48.772;9.186;2023-02-28T09:40:50;21.85;;;9.65;;
809;SDS011;387;48.772;9.186;2023-02-28T09:43:19;16.80;;;10.18;;
809;SDS011;387;48.772;9.186;2023-02-28T09:45:48;23.23;;;10.07;;
809;SDS011;387;48.772;9.186;2023-02-28T09:48:34;17.63;;;9.98;;
809;SDS011;387;48.772;9.186;2023-02-28T09:53:51;19.85;;;9.75;;
809;SDS011;387;48.772;9.186;2023-02-28T09:56:21;15.13;;;9.20;;
809;SDS011;387;48.772;9.186;2023-02-28T09:58:54;20.30;;;9.97;;
809;SDS011;387;48.772;9.186;2023-02-28T10:04:17;22.25;;;9.98;;
809;SDS011;387;48.772;9.186;2023-02-28T10:06:57;19.83;;;9.18;;
809;SDS011;387;48.772;9.186;2023-02-28T10:09:29;21.20;;;9.65;;
809;SDS011;387;48.772;9.186;2023-02-28T10:11:59;19.02;;;9.48;;
809;SDS011;387;48.772;9.186;2023-02-28T10:14:28;20.25;;;9.68;;
809;SDS011;387;48.772;9.186;2023-02-28T10:16:59;17.83;;;10.20;;
809;SDS011;387;48.772;9.186;2023-02-28T10:19:46;18.25;;;10.18;;
809;SDS011;387;48.772;9.186;2023-02-28T10:22:14;17.15;;;10.13;;
809;SDS011;387;48.772;9.186;2023-02-28T10:24:51;18.95;;;10.55;;
809;SDS011;387;48.772;9.186;2023-02-28T10:27:18;19.25;;;9.60;;
809;SDS011;387;48.772;9.186;2023-02-28T10:29:50;20.00;;;10.55;;
809;SDS011;387;48.772;9.186;2023-02-28T10:32:25;17.08;;;10.55;;
809;SDS011;387;48.772;9.186;2023-02-28T10:35:00;19.70;;;9.73;;
809;SDS011;387;48.772;9.186;2023-02-28T10:37:38;20.85;;;10.95;;
809;SDS011;387;48.772;9.186;2023-02-28T10:40:06;20.55;;;10.35;;
809;SDS011;387;48.772;9.186;2023-02-28T10:43:03;27.02;;;10.55;;
809;SDS011;387;48.772;9.186;2023-02-28T10:45:32;17.48;;;9.77;;
809;SDS011;387;48.772;9.186;2023-02-28T10:58:48;20.70;;;11.30;;
809;SDS011;387;48.772;9.186;2023-02-28T11:03:55;19.73;;;10.43;;
809;SDS011;387;48.772;9.186;2023-02-28T11:06:23;20.35;;;10.15;;
809;SDS011;387;48.772;9.186;2023-02-28T11:08:54;17.33;;;10.57;;
809;SDS011;387;48.772;9.186;2023-02-28T11:11:25;17.17;;;10.03;;
809;SDS011;387;48.772;9.186;2023-02-28T11:13:53;19.73;;;10.18;;
809;SDS011;387;48.772;9.186;2023-02-28T11:16:21;21.70;;;10.33;;
809;SDS011;387;48.772;9.186;2023-02-28T11:19:00;17.73;;;10.90;;
809;SDS011;387;48.772;9.186;2023-02-28T11:21:29;21.67;;;10.27;;
809;SDS011;387;48.772;9.186;2023-02-28T11:24:05;16.57;;;9.60;;
809;SDS011;387;48.772;9.186;2023-02-28T11:26:46;21.83;;;11.00;;
809;SDS011;387;48.772;9.186;2023-02-28T11:29:18;15.40;;;9.87;;
809;SDS011;387;48.772;9.186;2023-02-28T11:34:29;29.30;;;13.23;;
809;SDS011;387;48.772;9.186;2023-02-28T11:36:57;16.30;;;9.63;;
809;SDS011;387;48.772;9.186;2023-02-28T11:39:25;19.27;;;10.03;;
809;SDS011;387;48.772;9.186;2023-02-28T11:47:32;18.57;;;10.43;;
809;SDS011;387;48.772;9.186;2023-02-28T11:56:00;22.20;;;10.83;;
809;SDS011;387;48.772;9.186;2023-02-28T12:14:29;22.10;;;11.13;;
809;SDS011;387;48.772;9.186;2023-02-28T12:22:29;17.33;;;10.23;;
809;SDS011;387;48.772;9.186;2023-02-28T12:27:33;17.90;;;10.57;;
809;SDS011;387;48.772;9.186;2023-02-28T12:30:35;20.57;;;10.60;;
809;SDS011;387;48.772;9.186;2023-02-28T12:33:02;17.70;;;11.10;;
809;SDS011;387;48.772;9.186;2023-02-28T12:35:38;20.30;;;11.13;;
809;SDS011;387;48.772;9.186;2023-02-28T12:38:28;17.03;;;10.67;;
809;SDS011;387;48.772;9.186;2023-02-28T12:41:00;18.23;;;10.73;;
809;SDS011;387;48.772;9.186;2023-02-28T12:43:40;17.40;;;10.30;;
809;SDS011;387;48.772;9.186;2023-02-28T12:46:11;15.43;;;9.50;;
809;SDS011;387;48.772;9.186;2023-02-28T12:48:53;17.53;;;9.77;;
809;SDS011;387;48.772;9.186;2023-02-28T12:51:25;21.23;;;10.83;;
809;SDS011;387;48.772;9.186;2023-02-28T12:54:09;18.37;;;10.00;;
809;SDS011;387;48.772;9.186;2023-02-28T12:59:41;17.13;;;10.07;;
809;SDS011;387;48.772;9.186;2023-02-28T13:04:56;15.23;;;9.50;;
809;SDS011;387;48.772;9.186;2023-02-28T13:10:37;18.53;;;10.63;;
809;SDS011;387;48.772;9.186;2023-02-28T13:13:14;21.10;;;11.50;;
809;SDS011;387;48.772;9.186;2023-02-28T13:15:56;17.13;;;10.40;;
809;SDS011;387;48.772;9.186;2023-02-28T13:18:39;17.80;;;10.10;;
809;SDS011;387;48.772;9.186;2023-02-28T13:21:09;18.10;;;10.30;;
809;SDS011;387;48.772;9.186;2023-02-28T13:39:53;17.00;;;10.73;;
809;SDS011;387;48.772;9.186;2023-02-28T13:47:34;15.47;;;10.20;;
809;SDS011;387;48.772;9.186;2023-02-28T13:55:32;21.20;;;10.10;;
809;SDS011;387;48.772;9.186;2023-02-28T14:01:03;18.80;;;9.40;;
809;SDS011;387;48.772;9.186;2023-02-28T14:06:48;20.53;;;9.10;;
809;SDS011;387;48.772;9.186;2023-02-28T14:09:30;16.97;;;9.70;;
809;SDS011;387;48.772;9.186;2023-02-28T14:15:01;14.70;;;9.00;;
809;SDS011;387;48.772;9.186;2023-02-28T14:17:28;17.40;;;10.03;;
809;SDS011;387;48.772;9.186;2023-02-28T14:19:54;17.30;;;9.70;;
809;SDS011;387;48.772;9.186;2023-02-28T14:33:22;18.97;;;9.40;;
809;SDS011;387;48.772;9.186;2023-02-28T14:38:53;17.30;;;9.63;;
809;SDS011;387;48.772;9.186;2023-02-28T14:46:45;19.47;;;10.33;;
809;SDS011;387;48.772;9.186;2023-02-28T14:49:24;17.67;;;9.43;;
809;SDS011;387;48.772;9.186;2023-02-28T14:54:35;18.93;;;10.77;;
809;SDS011;387;48.772;9.186;2023-02-28T14:57:02;17.17;;;9.73;;
809;SDS011;387;48.772;9.186;2023-02-28T14:59:29;23.23;;;10.00;;
809;SDS011;387;48.772;9.186;2023-02-28T15:04:57;19.17;;;9.63;;
809;SDS011;387;48.772;9.186;2023-02-28T15:07:24;19.73;;;9.77;;
809;SDS011;387;48.772;9.186;2023-02-28T15:10:09;17.33;;;9.33;;
809;SDS011;387;48.772;9.186;2023-02-28T15:15:22;20.10;;;9.97;;
809;SDS011;387;48.772;9.186;2023-02-28T15:18:12;16.93;;;9.33;;
809;SDS011;387;48.772;9.186;2023-02-28T15:20:56;17.00;;;9.50;;
809;SDS011;387;48.772;9.186;2023-02-28T15:23:31;15.83;;;9.07;;
809;SDS011;387;48.772;9.186;2023-02-28T15:26:00;19.13;;;10.43;;
809;SDS011;387;48.772;9.186;2023-02-28T15:28:26;18.50;;;9.87;;
809;SDS011;387;48.772;9.186;2023-02-28T15:30:54;19.20;;;9.93;;
809;SDS011;387;48.772;9.186;2023-02-28T15:33:24;17.53;;;10.70;;
809;SDS011;387;48.772;9.186;2023-02-28T15:36:03;15.20;;;9.20;;
809;SDS011;387;48.772;9.186;2023-02-28T15:38:37;17.57;;;9.97;;
809;SDS011;387;48.772;9.186;2023-02-28T15:41:02;17.83;;;9.20;;
809;SDS011;387;48.772;9.186;2023-02-28T15:43:33;14.73;;;9.23;;
809;SDS011;387;48.772;9.186;2023-02-28T15:51:24;16.03;;;9.70;;
809;SDS011;387;48.772;9.186;2023-02-28T15:53:58;14.73;;;9.60;;
809;SDS011;387;48.772;9.186;2023-02-28T15:58:55;18.03;;;9.83;;
809;SDS011;387;48.772;9.186;2023-02-28T16:01:26;15.80;;;10.03;;
809;SDS011;387;48.772;9.186;2023-02-28T16:03:56;18.60;;;10.50;;
809;SDS011;387;48.772;9.186;2023-02-28T16:06:32;21.50;;;10.73;;
809;SDS011;387;48.772;9.186;2023-02-28T16:08:58;21.80;;;11.13;;
809;SDS011;387;48.772;9.186;2023-02-28T16:11:24;19.00;;;11.10;;
809;SDS011;387;48.772;9.186;2023-02-28T16:13:50;17.23;;;9.67;;
809;SDS011;387;48.772;9.186;2023-02-28T16:16:17;20.40;;;10.23;;
809;SDS011;387;48.772;9.186;2023-02-28T16:18:45;17.77;;;9.77;;
809;SDS011;387;48.772;9.186;2023-02-28T16:21:10;20.10;;;9.97;;
809;SDS011;387;48.772;9.186;2023-02-28T16:23:36;21.30;;;11.10;;
809;SDS011;387;48.772;9.186;2023-02-28T16:26:02;18.80;;;10.27;;
809;SDS011;387;48.772;9.186;2023-02-28T16:28:33;18.63;;;10.30;;
809;SDS011;387;48.772;9.186;2023-02-28T16:31:01;16.50;;;10.33;;
809;SDS011;387;48.772;9.186;2023-02-28T16:33:29;17.80;;;9.80;;
809;SDS011;387;48.772;9.186;2023-02-28T16:35:56;21.80;;;10.57;;
809;SDS011;387;48.772;9.186;2023-02-28T16:38:22;21.33;;;10.73;;
809;SDS011;387;48.772;9.186;2023-02-28T16:40:50;21.43;;;11.03;;
809;SDS011;387;48.772;9.186;2023-02-28T16:43:17;19.60;;;10.40;;
809;SDS011;387;48.772;9.186;2023-02-28T16:45:46;21.63;;;11.00;;
809;SDS011;387;48.772;9.186;2023-02-28T16:48:13;18.40;;;10.43;;
809;SDS011;387;48.772;9.186;2023-02-28T16:50:40;20.40;;;10.83;;
809;SDS011;387;48.772;9.186;2023-02-28T16:53:07;21.13;;;10.97;;
809;SDS011;387;48.772;9.186;2023-02-28T16:55:32;17.70;;;9.60;;
809;SDS011;387;48.772;9.186;2023-02-28T16:58:00;23.43;;;11.30;;
809;SDS011;387;48.772;9.186;2023-02-28T17:00:27;18.43;;;10.37;;
809;SDS011;387;48.772;9.186;2023-02-28T17:02:54;19.30;;;10.67;;
809;SDS011;387;48.772;9.186;2023-02-28T17:05:20;21.00;;;11.17;;
809;SDS011;387;48.772;9.186;2023-02-28T17:07:47;18.10;;;10.43;;
809;SDS011;387;48.772;9.186;2023-02-28T17:10:24;19.73;;;10.90;;
809;SDS011;387;48.772;9.186;2023-02-28T17:12:50;21.23;;;11.20;;
809;SDS011;387;48.772;9.186;2023-02-28T17:15:17;20.27;;;11.43;;
809;SDS011;387;48.772;9.186;2023-02-28T17:17:44;17.57;;;11.43;;
809;SDS011;387;48.772;9.186;2023-02-28T17:20:12;26.00;;;12.50;;
809;SDS011;387;48.772;9.186;2023-02-28T17:22:39;23.80;;;11.40;;
809;SDS011;387;48.772;9.186;2023-02-28T17:25:05;21.87;;;11.73;;
809;SDS011;387;48.772;9.186;2023-02-28T17:27:31;22.17;;;11.43;;
809;SDS011;387;48.772;9.186;2023-02-28T17:29:56;22.03;;;11.30;;
809;SDS011;387;48.772;9.186;2023-02-28T17:32:22;19.33;;;11.13;;
809;SDS011;387;48.772;9.186;2023-02-28T17:34:48;21.33;;;11.30;;
809;SDS011;387;48.772;9.186;2023-02-28T17:37:14;18.63;;;11.40;;
809;SDS011;387;48.772;9.186;2023-02-28T17:39:40;17.33;;;9.33;;
809;SDS011;387;48.772;9.186;2023-02-28T17:42:05;22.53;;;11.10;;
809;SDS011;387;48.772;9.186;2023-02-28T17:44:31;19.70;;;10.80;;
809;SDS011;387;48.772;9.186;2023-02-28T17:46:57;22.60;;;12.00;;
809;SDS011;387;48.772;9.186;2023-02-28T17:49:24;21.83;;;12.00;;
809;SDS011;387;48.772;9.186;2023-02-28T17:51:50;24.83;;;11.10;;
809;SDS011;387;48.772;9.186;2023-02-28T17:57:19;24.80;;;10.60;;
809;SDS011;387;48.772;9.186;2023-02-28T17:59:48;26.20;;;12.07;;
809;SDS011;387;48.772;9.186;2023-02-28T18:02:13;18.83;;;11.00;;
809;SDS011;387;48.772;9.186;2023-02-28T18:04:39;24.50;;;13.07;;
809;SDS011;387;48.772;9.186;2023-02-28T18:07:09;23.23;;;12.80;;
809;SDS011;387;48.772;9.186;2023-02-28T18:09:36;25.60;;;12.50;;
809;SDS011;387;48.772;9.186;2023-02-28T18:12:01;25.00;;;13.63;;
809;SDS011;387;48.772;9.186;2023-02-28T18:14:27;27.80;;;12.50;;
809;SDS011;387;48.772;9.186;2023-02-28T18:16:53;30.00;;;13.43;;
809;SDS011;387;48.772;9.186;2023-02-28T18:19:20;26.80;;;12.77;;
809;SDS011;387;48.772;9.186;2023-02-28T18:21:50;25.50;;;13.50;;
809;SDS011;387;48.772;9.186;2023-02-28T18:24:18;27.30;;;14.63;;
809;SDS011;387;48.772;9.186;2023-02-28T18:26:45;31.13;;;15.83;;
809;SDS011;387;48.772;9.186;2023-02-28T18:29:15;28.70;;;14.17;;
809;SDS011;387;48.772;9.186;2023-02-28T18:31:42;30.63;;;15.70;;
809;SDS011;387;48.772;9.186;2023-02-28T18:34:07;29.30;;;15.63;;